Terminal Aerodrome Forecast
Issued by NWS Charleston, WV

Current Version | Previous Version | Text Only | Print | Product List | Glossary Off
Versions: 1 2 3 4 5 6 7 8 9 10 11 12 13 14 15 16 17 18 19 20 21 22 23 24 25 26 27 28

000
FTUS41 KRLX 181501 AAA
TAFBKW
TAF AMD
KBKW 181501Z 1815/1912 21006KT P6SM BKN020 BKN070
     FM181700 23007KT P6SM SHRA VCTS BKN035CB
     FM182000 27009KT P6SM BKN040
     FM190100 29004KT P6SM SCT060
     FM190600 28002KT P6SM SCT250
     FM190900 VRB02KT 5SM BR SCT250=

USA.gov is the U.S. government's official web portal to all federal, state and local government web resources and services.